sensor_id;sensor_type;location;lat;lon;timestamp;P1;durP1;ratioP1;P2;durP2;ratioP2
74808;SDS011;63338;39.544;2.596;2023-09-18T00:00:12;35.83;;;4.60;;
74808;SDS011;63338;39.544;2.596;2023-09-18T00:02:53;41.88;;;5.00;;
74808;SDS011;63338;39.544;2.596;2023-09-18T00:06:03;53.60;;;6.20;;
74808;SDS011;63338;39.544;2.596;2023-09-18T00:08:55;51.67;;;7.60;;
74808;SDS011;63338;39.544;2.596;2023-09-18T00:11:48;38.17;;;5.30;;
74808;SDS011;63338;39.544;2.596;2023-09-18T00:14:37;39.25;;;5.40;;
74808;SDS011;63338;39.544;2.596;2023-09-18T00:20:15;46.65;;;5.93;;
74808;SDS011;63338;39.544;2.596;2023-09-18T00:23:05;45.78;;;5.35;;
74808;SDS011;63338;39.544;2.596;2023-09-18T00:25:45;45.13;;;6.57;;
74808;SDS011;63338;39.544;2.596;2023-09-18T00:28:33;50.38;;;6.65;;
74808;SDS011;63338;39.544;2.596;2023-09-18T00:35:44;61.85;;;6.97;;
74808;SDS011;63338;39.544;2.596;2023-09-18T00:38:34;58.17;;;6.75;;
74808;SDS011;63338;39.544;2.596;2023-09-18T00:41:13;49.55;;;6.32;;
74808;SDS011;63338;39.544;2.596;2023-09-18T00:46:49;50.05;;;7.45;;
74808;SDS011;63338;39.544;2.596;2023-09-18T00:49:44;50.70;;;7.18;;
74808;SDS011;63338;39.544;2.596;2023-09-18T00:53:06;46.05;;;6.28;;
74808;SDS011;63338;39.544;2.596;2023-09-18T00:55:46;50.40;;;6.30;;
74808;SDS011;63338;39.544;2.596;2023-09-18T00:58:40;44.92;;;5.93;;
74808;SDS011;63338;39.544;2.596;2023-09-18T01:01:27;52.38;;;6.53;;
74808;SDS011;63338;39.544;2.596;2023-09-18T01:04:11;44.55;;;6.25;;
74808;SDS011;63338;39.544;2.596;2023-09-18T01:06:51;59.53;;;6.30;;
74808;SDS011;63338;39.544;2.596;2023-09-18T01:09:36;48.72;;;6.63;;
74808;SDS011;63338;39.544;2.596;2023-09-18T01:12:33;54.40;;;7.05;;
74808;SDS011;63338;39.544;2.596;2023-09-18T01:15:51;40.80;;;6.32;;
74808;SDS011;63338;39.544;2.596;2023-09-18T01:18:35;49.47;;;6.30;;
74808;SDS011;63338;39.544;2.596;2023-09-18T01:25:48;44.67;;;6.03;;
74808;SDS011;63338;39.544;2.596;2023-09-18T01:29:13;43.83;;;5.95;;
74808;SDS011;63338;39.544;2.596;2023-09-18T01:35:07;48.38;;;7.38;;
74808;SDS011;63338;39.544;2.596;2023-09-18T01:37:45;65.13;;;7.38;;
74808;SDS011;63338;39.544;2.596;2023-09-18T01:40:25;53.28;;;7.05;;
74808;SDS011;63338;39.544;2.596;2023-09-18T01:42:59;52.05;;;7.32;;
74808;SDS011;63338;39.544;2.596;2023-09-18T01:45:48;57.45;;;6.88;;
74808;SDS011;63338;39.544;2.596;2023-09-18T01:48:28;40.70;;;6.82;;
74808;SDS011;63338;39.544;2.596;2023-09-18T01:51:02;51.35;;;7.10;;
74808;SDS011;63338;39.544;2.596;2023-09-18T01:53:48;57.35;;;6.82;;
74808;SDS011;63338;39.544;2.596;2023-09-18T01:56:39;56.03;;;8.05;;
74808;SDS011;63338;39.544;2.596;2023-09-18T02:03:03;43.67;;;6.03;;
74808;SDS011;63338;39.544;2.596;2023-09-18T02:05:43;45.20;;;5.45;;
74808;SDS011;63338;39.544;2.596;2023-09-18T02:08:30;45.15;;;6.53;;
74808;SDS011;63338;39.544;2.596;2023-09-18T02:14:53;60.28;;;7.75;;
74808;SDS011;63338;39.544;2.596;2023-09-18T02:17:37;52.67;;;7.82;;
74808;SDS011;63338;39.544;2.596;2023-09-18T02:20:39;54.72;;;7.72;;
74808;SDS011;63338;39.544;2.596;2023-09-18T02:23:22;54.35;;;6.60;;
74808;SDS011;63338;39.544;2.596;2023-09-18T02:25:57;53.58;;;7.75;;
74808;SDS011;63338;39.544;2.596;2023-09-18T02:28:37;48.05;;;7.30;;
74808;SDS011;63338;39.544;2.596;2023-09-18T02:31:20;70.78;;;9.38;;
74808;SDS011;63338;39.544;2.596;2023-09-18T02:33:56;57.33;;;8.35;;
74808;SDS011;63338;39.544;2.596;2023-09-18T02:36:43;57.85;;;8.75;;
74808;SDS011;63338;39.544;2.596;2023-09-18T02:46:56;43.97;;;7.82;;
74808;SDS011;63338;39.544;2.596;2023-09-18T02:49:36;55.55;;;7.30;;
74808;SDS011;63338;39.544;2.596;2023-09-18T02:52:16;64.47;;;8.55;;
74808;SDS011;63338;39.544;2.596;2023-09-18T02:55:11;53.58;;;8.40;;
74808;SDS011;63338;39.544;2.596;2023-09-18T02:58:10;56.38;;;8.73;;
74808;SDS011;63338;39.544;2.596;2023-09-18T03:04:39;58.38;;;8.40;;
74808;SDS011;63338;39.544;2.596;2023-09-18T03:07:37;58.13;;;9.30;;
74808;SDS011;63338;39.544;2.596;2023-09-18T03:10:27;58.10;;;8.52;;
74808;SDS011;63338;39.544;2.596;2023-09-18T03:13:21;57.42;;;8.75;;
74808;SDS011;63338;39.544;2.596;2023-09-18T03:16:22;63.13;;;9.05;;
74808;SDS011;63338;39.544;2.596;2023-09-18T03:19:06;63.38;;;9.52;;
74808;SDS011;63338;39.544;2.596;2023-09-18T03:21:44;66.25;;;8.70;;
74808;SDS011;63338;39.544;2.596;2023-09-18T03:24:25;64.18;;;9.70;;
74808;SDS011;63338;39.544;2.596;2023-09-18T03:27:12;56.85;;;8.93;;
74808;SDS011;63338;39.544;2.596;2023-09-18T03:29:55;72.15;;;9.45;;
74808;SDS011;63338;39.544;2.596;2023-09-18T03:32:34;66.75;;;9.23;;
74808;SDS011;63338;39.544;2.596;2023-09-18T03:35:12;45.90;;;8.48;;
74808;SDS011;63338;39.544;2.596;2023-09-18T03:38:11;59.72;;;9.93;;
74808;SDS011;63338;39.544;2.596;2023-09-18T03:40:47;61.17;;;8.57;;
74808;SDS011;63338;39.544;2.596;2023-09-18T03:43:27;60.38;;;9.00;;
74808;SDS011;63338;39.544;2.596;2023-09-18T03:46:10;69.03;;;8.48;;
74808;SDS011;63338;39.544;2.596;2023-09-18T03:53:00;52.67;;;8.07;;
74808;SDS011;63338;39.544;2.596;2023-09-18T03:55:38;51.88;;;8.15;;
74808;SDS011;63338;39.544;2.596;2023-09-18T03:58:16;66.50;;;8.88;;
74808;SDS011;63338;39.544;2.596;2023-09-18T04:00:52;56.25;;;7.88;;
74808;SDS011;63338;39.544;2.596;2023-09-18T04:03:30;58.47;;;7.35;;
74808;SDS011;63338;39.544;2.596;2023-09-18T04:06:13;43.85;;;8.73;;
74808;SDS011;63338;39.544;2.596;2023-09-18T04:08:57;49.30;;;7.63;;
74808;SDS011;63338;39.544;2.596;2023-09-18T04:11:38;55.55;;;8.77;;
74808;SDS011;63338;39.544;2.596;2023-09-18T04:14:29;61.05;;;8.27;;
74808;SDS011;63338;39.544;2.596;2023-09-18T04:17:06;54.53;;;7.70;;
74808;SDS011;63338;39.544;2.596;2023-09-18T04:19:45;50.95;;;8.25;;
74808;SDS011;63338;39.544;2.596;2023-09-18T04:22:30;64.43;;;9.07;;
74808;SDS011;63338;39.544;2.596;2023-09-18T04:25:10;53.60;;;8.07;;
74808;SDS011;63338;39.544;2.596;2023-09-18T04:28:23;48.55;;;7.68;;
74808;SDS011;63338;39.544;2.596;2023-09-18T04:34:07;41.75;;;6.65;;
74808;SDS011;63338;39.544;2.596;2023-09-18T04:49:43;40.15;;;6.57;;
74808;SDS011;63338;39.544;2.596;2023-09-18T05:16:58;22.95;;;4.40;;
74808;SDS011;63338;39.544;2.596;2023-09-18T05:24:29;21.83;;;3.83;;
74808;SDS011;63338;39.544;2.596;2023-09-18T05:55:00;19.17;;;3.72;;
74808;SDS011;63338;39.544;2.596;2023-09-18T05:58:51;21.90;;;3.95;;
74808;SDS011;63338;39.544;2.596;2023-09-18T06:34:29;16.17;;;4.20;;
74808;SDS011;63338;39.544;2.596;2023-09-18T06:41:15;20.70;;;4.40;;
74808;SDS011;63338;39.544;2.596;2023-09-18T06:57:09;23.85;;;4.38;;
74808;SDS011;63338;39.544;2.596;2023-09-18T11:28:54;11.35;;;2.10;;
74808;SDS011;63338;39.544;2.596;2023-09-18T12:00:12;13.85;;;2.50;;
74808;SDS011;63338;39.544;2.596;2023-09-18T12:13:43;9.82;;;2.15;;
74808;SDS011;63338;39.544;2.596;2023-09-18T12:17:23;12.05;;;2.10;;
74808;SDS011;63338;39.544;2.596;2023-09-18T12:24:42;15.35;;;2.58;;
74808;SDS011;63338;39.544;2.596;2023-09-18T12:43:06;13.18;;;2.20;;
74808;SDS011;63338;39.544;2.596;2023-09-18T12:46:22;9.95;;;2.47;;
74808;SDS011;63338;39.544;2.596;2023-09-18T12:49:40;9.88;;;2.30;;
74808;SDS011;63338;39.544;2.596;2023-09-18T13:01:37;7.82;;;2.08;;
74808;SDS011;63338;39.544;2.596;2023-09-18T13:08:43;12.70;;;2.50;;
74808;SDS011;63338;39.544;2.596;2023-09-18T13:18:32;11.77;;;2.47;;
74808;SDS011;63338;39.544;2.596;2023-09-18T13:21:58;10.10;;;2.35;;
74808;SDS011;63338;39.544;2.596;2023-09-18T14:10:05;13.40;;;2.50;;
74808;SDS011;63338;39.544;2.596;2023-09-18T15:05:34;8.35;;;2.00;;
74808;SDS011;63338;39.544;2.596;2023-09-18T18:54:26;8.18;;;2.33;;
